Time;durP1;ratioP1;P1;durP2;ratioP2;P2;SDS_P1;SDS_P2;PMS_P1;PMS_P2;Temp;Humidity;BMP_temperature;BMP_pressure;BME280_temperature;BME280_humidity;BME280_pressure;Samples;Min_cycle;Max_cycle;Signal;HPM_P1;HPM_P2
2022/11/25 00:01:56;;;;;;;23.33;21.63;;;;;;;;;;5076728;28;20562;-79
2022/11/25 00:04:23;;;;;;;24.98;22.80;;;;;;;;;;5076933;28;20206;-79
2022/11/25 00:06:50;;;;;;;25.27;23.30;;;;;;;;;;5075960;28;20217;-80
2022/11/25 00:09:17;;;;;;;23.88;22.48;;;;;;;;;;5076616;28;20201;-79
2022/11/25 00:11:44;;;;;;;24.67;22.55;;;;;;;;;;5075799;28;20211;-81
2022/11/25 00:14:14;;;;;;;23.20;21.60;;;;;;;;;;5076408;28;20539;-80
2022/11/25 00:16:41;;;;;;;23.90;22.00;;;;;;;;;;5075799;28;20249;-80
2022/11/25 00:19:10;;;;;;;24.67;22.77;;;;;;;;;;5076145;28;20221;-80
2022/11/25 00:21:38;;;;;;;24.38;22.48;;;;;;;;;;5076096;28;20234;-79
2022/11/25 00:24:06;;;;;;;24.13;22.08;;;;;;;;;;5075469;28;20684;-79
2022/11/25 00:26:34;;;;;;;24.83;22.83;;;;;;;;;;5076263;28;20580;-81
2022/11/25 00:29:02;;;;;;;24.58;22.75;;;;;;;;;;5075827;28;20241;-80
2022/11/25 00:31:32;;;;;;;25.25;23.25;;;;;;;;;;5076596;28;20212;-79
2022/11/25 00:33:59;;;;;;;25.02;22.52;;;;;;;;;;5075954;28;20212;-80
2022/11/25 00:36:28;;;;;;;25.13;22.77;;;;;;;;;;5075978;28;20230;-80
2022/11/25 00:38:55;;;;;;;24.00;21.85;;;;;;;;;;5075469;28;20213;-80
2022/11/25 00:46:55;;;;;;;23.38;21.17;;;;;;;;;;5076387;28;20208;-80
2022/11/25 00:49:22;;;;;;;26.33;24.08;;;;;;;;;;5075701;28;20216;-80
2022/11/25 00:51:49;;;;;;;23.95;22.15;;;;;;;;;;5075499;28;20217;-80
2022/11/25 00:54:16;;;;;;;23.63;21.50;;;;;;;;;;5076051;28;20206;-79
2022/11/25 00:56:44;;;;;;;24.50;22.58;;;;;;;;;;5075834;28;20228;-79
2022/11/25 00:59:11;;;;;;;24.65;22.45;;;;;;;;;;5075530;28;20204;-81
2022/11/25 01:01:38;;;;;;;24.70;22.48;;;;;;;;;;5076221;28;20211;-81
2022/11/25 01:04:07;;;;;;;24.27;22.42;;;;;;;;;;5075536;28;20676;-80
2022/11/25 01:06:35;;;;;;;23.90;22.30;;;;;;;;;;5075088;28;20228;-80
2022/11/25 01:09:02;;;;;;;24.88;22.73;;;;;;;;;;5075410;28;20208;-79
2022/11/25 01:11:29;;;;;;;25.88;22.73;;;;;;;;;;5076184;28;20209;-80
2022/11/25 01:13:57;;;;;;;24.63;22.65;;;;;;;;;;5075112;28;20211;-79
2022/11/25 01:16:24;;;;;;;25.25;23.25;;;;;;;;;;5074588;28;20660;-80
2022/11/25 01:18:52;;;;;;;24.30;22.00;;;;;;;;;;5074400;28;20245;-80
2022/11/25 01:21:20;;;;;;;24.65;22.35;;;;;;;;;;5075473;28;20211;-80
2022/11/25 01:23:48;;;;;;;24.35;22.55;;;;;;;;;;5075278;28;20207;-80
2022/11/25 01:26:16;;;;;;;22.98;21.40;;;;;;;;;;5075416;28;20233;-80
2022/11/25 01:28:44;;;;;;;23.40;21.55;;;;;;;;;;5075868;28;20594;-79
2022/11/25 01:31:13;;;;;;;22.60;20.92;;;;;;;;;;5078497;28;20705;-79
2022/11/25 01:33:40;;;;;;;23.27;21.40;;;;;;;;;;5078667;28;20809;-80
2022/11/25 01:36:09;;;;;;;23.65;21.65;;;;;;;;;;5078496;28;20230;-80
2022/11/25 01:38:37;;;;;;;23.48;21.60;;;;;;;;;;5079234;28;20193;-80
2022/11/25 01:41:05;;;;;;;23.75;21.80;;;;;;;;;;5078093;28;20206;-80
2022/11/25 01:43:32;;;;;;;22.25;20.65;;;;;;;;;;5078283;28;20214;-80
2022/11/25 01:46:01;;;;;;;23.58;21.48;;;;;;;;;;5076760;28;20227;-81
2022/11/25 01:48:31;;;;;;;23.05;21.15;;;;;;;;;;5076111;28;20205;-79
2022/11/25 01:50:58;;;;;;;22.70;20.90;;;;;;;;;;5075400;28;20674;-78
2022/11/25 01:53:25;;;;;;;22.98;21.13;;;;;;;;;;5075091;28;20297;-79
2022/11/25 01:55:55;;;;;;;23.70;21.27;;;;;;;;;;5074796;28;20321;-78
2022/11/25 01:58:24;;;;;;;22.10;20.55;;;;;;;;;;5075756;28;20193;-78
2022/11/25 02:00:52;;;;;;;23.35;21.40;;;;;;;;;;5075214;28;20210;-79
2022/11/25 02:03:20;;;;;;;21.13;19.70;;;;;;;;;;5075467;28;20206;-79
2022/11/25 02:05:51;;;;;;;22.90;21.13;;;;;;;;;;5075268;28;20227;-78
2022/11/25 02:08:19;;;;;;;23.97;21.93;;;;;;;;;;5074740;28;20195;-79
2022/11/25 02:10:47;;;;;;;23.88;21.27;;;;;;;;;;5074575;28;20533;-78
2022/11/25 02:13:16;;;;;;;22.17;20.23;;;;;;;;;;5074014;28;20278;-79
2022/11/25 02:15:43;;;;;;;23.17;20.90;;;;;;;;;;5075662;28;20498;-79
2022/11/25 02:18:11;;;;;;;22.70;20.90;;;;;;;;;;5076246;28;20243;-79
2022/11/25 02:20:39;;;;;;;23.58;21.65;;;;;;;;;;5076129;28;20292;-79
2022/11/25 02:23:09;;;;;;;22.30;20.70;;;;;;;;;;5075102;28;20200;-80
2022/11/25 02:25:39;;;;;;;22.30;20.70;;;;;;;;;;5076015;28;20308;-79
2022/11/25 02:28:08;;;;;;;22.25;20.05;;;;;;;;;;5076624;28;20344;-80
2022/11/25 02:30:35;;;;;;;21.52;19.80;;;;;;;;;;5075380;28;20302;-79
2022/11/25 02:33:02;;;;;;;21.75;20.10;;;;;;;;;;5075035;28;20301;-79
2022/11/25 02:35:32;;;;;;;22.00;20.00;;;;;;;;;;5075771;28;20315;-79
2022/11/25 02:38:01;;;;;;;22.10;20.33;;;;;;;;;;5075599;28;20214;-79
2022/11/25 02:40:28;;;;;;;21.37;19.33;;;;;;;;;;5075056;28;20455;-80
2022/11/25 02:42:57;;;;;;;22.63;20.67;;;;;;;;;;5074794;28;20545;-79
2022/11/25 02:45:30;;;;;;;21.48;19.88;;;;;;;;;;5075470;28;20218;-79
2022/11/25 02:47:57;;;;;;;20.80;19.33;;;;;;;;;;5075274;28;20200;-78
2022/11/25 02:50:25;;;;;;;21.70;19.80;;;;;;;;;;5075710;28;20444;-80
2022/11/25 02:52:52;;;;;;;22.38;20.27;;;;;;;;;;5074338;28;20579;-78
2022/11/25 02:55:19;;;;;;;20.30;19.00;;;;;;;;;;5074977;28;20237;-79
2022/11/25 02:57:46;;;;;;;21.37;19.87;;;;;;;;;;5075550;28;20463;-79
2022/11/25 03:00:15;;;;;;;21.93;19.97;;;;;;;;;;5075438;28;20458;-79
2022/11/25 03:02:42;;;;;;;20.90;19.30;;;;;;;;;;5074124;28;20456;-78
2022/11/25 03:05:10;;;;;;;20.17;18.98;;;;;;;;;;5074632;28;20472;-79
2022/11/25 03:07:37;;;;;;;21.35;19.65;;;;;;;;;;5074630;28;20206;-79
2022/11/25 03:10:05;;;;;;;22.30;20.00;;;;;;;;;;5074705;28;20207;-79
2022/11/25 03:12:32;;;;;;;21.42;19.65;;;;;;;;;;5073697;28;20449;-79
2022/11/25 03:14:59;;;;;;;21.52;19.73;;;;;;;;;;5073946;28;20280;-80
2022/11/25 03:17:28;;;;;;;21.50;19.60;;;;;;;;;;5074343;28;20249;-79
2022/11/25 03:19:55;;;;;;;20.92;19.55;;;;;;;;;;5074676;28;20481;-79
2022/11/25 03:22:22;;;;;;;21.13;19.75;;;;;;;;;;5073947;28;20288;-78
2022/11/25 03:24:49;;;;;;;21.00;19.70;;;;;;;;;;5073106;28;20701;-80
2022/11/25 03:27:16;;;;;;;20.98;19.50;;;;;;;;;;5073994;28;20205;-78
2022/11/25 03:29:43;;;;;;;24.93;21.17;;;;;;;;;;5074160;28;20209;-79
2022/11/25 03:32:10;;;;;;;21.13;19.50;;;;;;;;;;5073464;28;20471;-79
2022/11/25 03:34:38;;;;;;;20.98;19.42;;;;;;;;;;5072720;28;20673;-79
2022/11/25 03:37:06;;;;;;;22.67;20.75;;;;;;;;;;5074270;28;20258;-79
2022/11/25 03:39:33;;;;;;;20.60;19.35;;;;;;;;;;5074584;28;20214;-80
2022/11/25 03:42:00;;;;;;;20.75;19.33;;;;;;;;;;5076386;28;20566;-80
2022/11/25 03:44:27;;;;;;;20.85;19.45;;;;;;;;;;5075797;28;20242;-79
2022/11/25 03:46:54;;;;;;;20.85;19.10;;;;;;;;;;5077695;28;20191;-79
2022/11/25 03:49:21;;;;;;;22.37;20.17;;;;;;;;;;5077158;28;20213;-79
2022/11/25 03:51:50;;;;;;;20.90;19.40;;;;;;;;;;5075537;28;20448;-80
2022/11/25 03:54:17;;;;;;;21.80;20.07;;;;;;;;;;5076540;28;20456;-81
2022/11/25 03:56:44;;;;;;;21.40;19.80;;;;;;;;;;5076797;28;20885;-80
2022/11/25 03:59:11;;;;;;;20.90;19.27;;;;;;;;;;5077225;28;20567;-80
2022/11/25 04:01:39;;;;;;;21.48;19.92;;;;;;;;;;5077312;28;20213;-80
2022/11/25 04:04:06;;;;;;;23.88;20.17;;;;;;;;;;5076447;28;20248;-80
2022/11/25 04:06:33;;;;;;;22.70;20.50;;;;;;;;;;5076191;28;20217;-80
2022/11/25 04:09:01;;;;;;;20.60;19.20;;;;;;;;;;5076223;28;20881;-80
2022/11/25 04:14:09;;;;;;;21.20;19.58;;;;;;;;;;5075812;28;20941;-80
2022/11/25 04:16:36;;;;;;;21.90;20.30;;;;;;;;;;5076552;28;20294;-80
2022/11/25 04:19:04;;;;;;;22.30;20.50;;;;;;;;;;5077012;28;20216;-80
2022/11/25 04:21:31;;;;;;;21.23;19.60;;;;;;;;;;5076433;28;20467;-79
2022/11/25 04:23:58;;;;;;;21.75;19.85;;;;;;;;;;5075559;28;20471;-80
2022/11/25 04:26:26;;;;;;;22.08;20.27;;;;;;;;;;5075963;28;20226;-80
2022/11/25 04:28:53;;;;;;;21.92;20.15;;;;;;;;;;5076661;28;20218;-80
2022/11/25 04:31:20;;;;;;;22.70;20.35;;;;;;;;;;5076456;28;20696;-79
2022/11/25 04:33:47;;;;;;;21.02;19.52;;;;;;;;;;5075920;28;20210;-80
2022/11/25 04:36:15;;;;;;;21.93;19.80;;;;;;;;;;5076021;28;20709;-80
2022/11/25 04:38:42;;;;;;;22.60;20.70;;;;;;;;;;5075514;28;20475;-80
2022/11/25 04:41:09;;;;;;;21.85;20.27;;;;;;;;;;5076666;28;20207;-80
2022/11/25 04:43:37;;;;;;;21.75;20.17;;;;;;;;;;5076141;28;20218;-80
2022/11/25 04:46:04;;;;;;;22.50;20.53;;;;;;;;;;5091026;28;20218;-82
2022/11/25 04:48:32;;;;;;;21.42;19.83;;;;;;;;;;5095562;28;20441;-80
2022/11/25 04:50:59;;;;;;;21.70;19.93;;;;;;;;;;5096614;28;20205;-81
2022/11/25 04:53:26;;;;;;;20.75;19.52;;;;;;;;;;5096198;28;20446;-79
2022/11/25 04:55:54;;;;;;;21.40;19.47;;;;;;;;;;5097113;28;20230;-80
2022/11/25 05:01:04;;;;;;;22.33;20.63;;;;;;;;;;5095869;28;20966;-80
2022/11/25 05:03:31;;;;;;;22.15;20.55;;;;;;;;;;5095943;28;20501;-80
2022/11/25 05:05:58;;;;;;;21.70;20.30;;;;;;;;;;5100471;28;20243;-80
2022/11/25 05:08:25;;;;;;;23.53;20.13;;;;;;;;;;5099598;28;20220;-80
2022/11/25 05:10:52;;;;;;;21.00;19.50;;;;;;;;;;5099980;28;20456;-81
2022/11/25 05:13:19;;;;;;;21.13;19.80;;;;;;;;;;5099498;28;20425;-80
2022/11/25 05:15:46;;;;;;;21.30;19.48;;;;;;;;;;5100075;28;20475;-80
2022/11/25 05:18:15;;;;;;;20.90;19.30;;;;;;;;;;5099877;28;20221;-80
2022/11/25 05:20:42;;;;;;;22.07;20.20;;;;;;;;;;5100099;28;20458;-80
2022/11/25 05:23:10;;;;;;;21.80;20.20;;;;;;;;;;5100172;28;20452;-80
2022/11/25 05:25:37;;;;;;;21.55;20.15;;;;;;;;;;5099869;28;20520;-80
2022/11/25 05:28:04;;;;;;;22.52;20.35;;;;;;;;;;5100984;28;20206;-81
2022/11/25 05:30:31;;;;;;;23.50;21.03;;;;;;;;;;5099470;28;20211;-80
2022/11/25 05:32:58;;;;;;;21.17;19.88;;;;;;;;;;5099282;28;20447;-80
2022/11/25 05:35:27;;;;;;;23.03;21.03;;;;;;;;;;5099864;28;20234;-80
2022/11/25 05:37:54;;;;;;;22.30;20.80;;;;;;;;;;5099714;28;20864;-79
2022/11/25 05:40:21;;;;;;;21.80;20.10;;;;;;;;;;5100094;28;20681;-80
2022/11/25 05:42:49;;;;;;;22.50;21.00;;;;;;;;;;5099032;28;20855;-79
2022/11/25 05:45:16;;;;;;;30.13;27.02;;;;;;;;;;5099494;28;20474;-79
2022/11/25 05:47:43;;;;;;;36.70;32.87;;;;;;;;;;5103293;28;20210;-79
2022/11/25 05:50:11;;;;;;;28.40;25.70;;;;;;;;;;5103558;28;20463;-80
2022/11/25 05:52:39;;;;;;;25.27;23.43;;;;;;;;;;5100752;28;20473;-80
2022/11/25 05:55:06;;;;;;;30.75;27.35;;;;;;;;;;5100630;28;20445;-80
2022/11/25 05:57:34;;;;;;;24.13;22.20;;;;;;;;;;5100565;28;20577;-79
2022/11/25 06:00:01;;;;;;;22.97;21.10;;;;;;;;;;5100938;28;20448;-79
2022/11/25 06:02:28;;;;;;;23.13;21.23;;;;;;;;;;5099107;28;20444;-80
2022/11/25 06:04:55;;;;;;;23.97;22.27;;;;;;;;;;5099543;28;20271;-79
2022/11/25 06:07:22;;;;;;;27.53;25.03;;;;;;;;;;5100069;28;20450;-80
2022/11/25 06:09:51;;;;;;;31.70;28.50;;;;;;;;;;5099883;28;20448;-80
2022/11/25 06:12:18;;;;;;;35.20;31.83;;;;;;;;;;5099569;28;20456;-80
2022/11/25 06:14:45;;;;;;;23.15;21.15;;;;;;;;;;5097823;28;20502;-79
2022/11/25 06:17:12;;;;;;;26.90;24.80;;;;;;;;;;5099355;28;20226;-81
2022/11/25 06:19:39;;;;;;;21.73;20.33;;;;;;;;;;5099496;28;20788;-80
2022/11/25 06:22:06;;;;;;;21.10;19.50;;;;;;;;;;5099901;28;20452;-80
2022/11/25 06:24:33;;;;;;;21.57;19.93;;;;;;;;;;5098843;28;20835;-81
2022/11/25 06:27:02;;;;;;;22.42;20.55;;;;;;;;;;5099350;28;20443;-79
2022/11/25 06:29:29;;;;;;;21.77;20.40;;;;;;;;;;5098901;28;20212;-79
2022/11/25 06:31:56;;;;;;;26.00;23.70;;;;;;;;;;5098835;28;20820;-80
2022/11/25 06:34:23;;;;;;;33.43;29.97;;;;;;;;;;5098789;28;20480;-80
2022/11/25 06:39:54;;;;;;;24.27;22.30;;;;;;;;;;5097107;28;20489;-80
2022/11/25 06:42:22;;;;;;;25.33;22.83;;;;;;;;;;5098982;28;20433;-80
2022/11/25 06:44:49;;;;;;;22.43;21.00;;;;;;;;;;5097433;28;20472;-80
2022/11/25 06:47:16;;;;;;;22.37;20.83;;;;;;;;;;5099002;28;20451;-79
2022/11/25 06:49:43;;;;;;;21.30;19.80;;;;;;;;;;5097732;28;20486;-80
2022/11/25 06:52:10;;;;;;;24.03;22.23;;;;;;;;;;5097620;28;20464;-80
2022/11/25 06:54:40;;;;;;;22.10;20.60;;;;;;;;;;5098464;28;20452;-80
2022/11/25 06:57:07;;;;;;;23.87;22.07;;;;;;;;;;5098944;28;20484;-80
2022/11/25 06:59:35;;;;;;;24.13;22.03;;;;;;;;;;5097937;28;20844;-80
2022/11/25 07:02:03;;;;;;;22.70;21.00;;;;;;;;;;5097879;28;20460;-79
2022/11/25 07:04:30;;;;;;;23.17;21.27;;;;;;;;;;5098735;28;20421;-80
2022/11/25 07:06:57;;;;;;;22.77;21.37;;;;;;;;;;5097871;28;20568;-79
2022/11/25 07:09:24;;;;;;;23.90;21.90;;;;;;;;;;5095921;28;20970;-78
2022/11/25 07:11:51;;;;;;;22.70;20.97;;;;;;;;;;5096435;28;20256;-79
2022/11/25 07:14:18;;;;;;;23.80;21.80;;;;;;;;;;5096708;28;20438;-79
2022/11/25 07:16:47;;;;;;;23.93;21.57;;;;;;;;;;5096512;28;20495;-77
2022/11/25 07:19:15;;;;;;;23.57;21.67;;;;;;;;;;5094877;28;20460;-75
2022/11/25 07:21:44;;;;;;;22.60;21.00;;;;;;;;;;5093437;28;20495;-75
2022/11/25 07:24:11;;;;;;;25.50;23.37;;;;;;;;;;5094386;28;20458;-75
2022/11/25 07:26:39;;;;;;;23.50;21.60;;;;;;;;;;5093382;28;20474;-75
2022/11/25 07:29:07;;;;;;;25.42;23.50;;;;;;;;;;5093814;28;20466;-75
2022/11/25 07:31:35;;;;;;;24.30;22.03;;;;;;;;;;5093785;28;20234;-73
2022/11/25 07:34:04;;;;;;;24.00;22.30;;;;;;;;;;5093710;28;20800;-74
2022/11/25 07:36:31;;;;;;;24.90;23.07;;;;;;;;;;5093375;28;20468;-75
2022/11/25 07:38:59;;;;;;;22.77;21.17;;;;;;;;;;5093556;28;20454;-77
2022/11/25 07:41:27;;;;;;;26.10;24.10;;;;;;;;;;5081864;28;20442;-75
2022/11/25 07:43:55;;;;;;;25.27;22.87;;;;;;;;;;5072827;28;20829;-75
2022/11/25 07:46:23;;;;;;;24.10;22.10;;;;;;;;;;5073545;28;20463;-76
2022/11/25 07:48:50;;;;;;;24.27;22.63;;;;;;;;;;5074322;28;20449;-74
2022/11/25 07:51:21;;;;;;;23.63;21.63;;;;;;;;;;5073476;28;20452;-76
2022/11/25 07:53:48;;;;;;;24.17;21.90;;;;;;;;;;5072097;28;20842;-77
2022/11/25 07:56:16;;;;;;;24.33;22.70;;;;;;;;;;5074124;28;20484;-76
2022/11/25 07:58:44;;;;;;;24.60;22.43;;;;;;;;;;5081945;28;20492;-85
2022/11/25 08:01:12;;;;;;;25.00;23.10;;;;;;;;;;5079802;28;20431;-86
2022/11/25 08:03:40;;;;;;;23.00;21.53;;;;;;;;;;5076927;28;20465;-82
2022/11/25 08:06:08;;;;;;;23.93;21.90;;;;;;;;;;5082875;28;20475;-83
2022/11/25 08:08:37;;;;;;;23.43;21.80;;;;;;;;;;5080618;28;20460;-80
2022/11/25 08:11:06;;;;;;;25.00;22.87;;;;;;;;;;5077822;28;20449;-82
2022/11/25 08:13:33;;;;;;;23.83;22.20;;;;;;;;;;5076492;28;20452;-80
2022/11/25 08:16:01;;;;;;;24.53;22.67;;;;;;;;;;5076670;28;20532;-80
2022/11/25 08:18:28;;;;;;;24.00;22.30;;;;;;;;;;5076310;28;20459;-81
2022/11/25 08:20:59;;;;;;;25.70;23.63;;;;;;;;;;5076882;28;20460;-79
2022/11/25 08:23:26;;;;;;;23.57;21.97;;;;;;;;;;5076680;28;20483;-81
2022/11/25 08:25:54;;;;;;;24.53;22.20;;;;;;;;;;5075182;28;21034;-80
2022/11/25 08:28:21;;;;;;;25.03;23.13;;;;;;;;;;5076391;28;20460;-81
2022/11/25 08:30:48;;;;;;;24.90;23.07;;;;;;;;;;5076523;28;20964;-80
2022/11/25 08:33:15;;;;;;;26.93;23.30;;;;;;;;;;5076547;28;20457;-81
2022/11/25 08:35:43;;;;;;;24.67;22.90;;;;;;;;;;5075889;28;20497;-81
2022/11/25 08:38:11;;;;;;;26.97;24.67;;;;;;;;;;5074343;28;20458;-75
2022/11/25 08:40:39;;;;;;;25.00;23.10;;;;;;;;;;5075731;28;20436;-82
2022/11/25 08:43:07;;;;;;;26.40;24.20;;;;;;;;;;5077759;28;20852;-82
2022/11/25 08:45:34;;;;;;;25.63;23.73;;;;;;;;;;5078571;28;20470;-82
2022/11/25 08:48:01;;;;;;;26.50;24.60;;;;;;;;;;5078283;28;20441;-82
2022/11/25 08:50:28;;;;;;;28.13;25.60;;;;;;;;;;5078552;28;20449;-83
2022/11/25 08:52:56;;;;;;;26.53;24.30;;;;;;;;;;5084499;28;21004;-83
2022/11/25 08:55:24;;;;;;;27.23;25.20;;;;;;;;;;5099155;28;20473;-82
2022/11/25 08:57:52;;;;;;;27.73;25.10;;;;;;;;;;5097778;28;20483;-83
2022/11/25 09:00:21;;;;;;;27.67;25.10;;;;;;;;;;5098603;28;20961;-88
2022/11/25 09:02:48;;;;;;;27.60;25.50;;;;;;;;;;5091596;28;20443;-76
2022/11/25 09:05:16;;;;;;;27.60;25.40;;;;;;;;;;5092198;28;20453;-77
2022/11/25 09:07:44;;;;;;;28.80;26.60;;;;;;;;;;5092621;28;20437;-76
2022/11/25 09:10:15;;;;;;;27.80;25.77;;;;;;;;;;5092284;28;20459;-85
2022/11/25 09:12:42;;;;;;;28.13;25.53;;;;;;;;;;5094633;28;20471;-82
2022/11/25 09:15:10;;;;;;;28.63;26.30;;;;;;;;;;5093206;28;20464;-76
2022/11/25 09:17:38;;;;;;;27.13;25.13;;;;;;;;;;5092280;28;20483;-73
2022/11/25 09:20:06;;;;;;;28.30;25.57;;;;;;;;;;5092554;28;20426;-75
2022/11/25 09:22:33;;;;;;;26.27;24.23;;;;;;;;;;5093896;28;20443;-74
2022/11/25 09:25:00;;;;;;;27.45;24.98;;;;;;;;;;5092751;28;20472;-73
2022/11/25 09:27:27;;;;;;;27.90;25.20;;;;;;;;;;5094268;28;20200;-84
2022/11/25 09:29:54;;;;;;;26.70;24.53;;;;;;;;;;5094077;28;20462;-73
2022/11/25 09:32:21;;;;;;;26.73;24.63;;;;;;;;;;5091885;28;20451;-73
2022/11/25 09:34:50;;;;;;;26.87;24.37;;;;;;;;;;5092128;28;20478;-74
2022/11/25 09:37:17;;;;;;;27.97;25.57;;;;;;;;;;5092565;28;20474;-75
2022/11/25 09:39:44;;;;;;;27.23;25.03;;;;;;;;;;5092262;28;20456;-74
2022/11/25 09:48:01;;;;;;;29.40;26.37;;;;;;;;;;5092294;28;20478;-76
2022/11/25 09:50:35;;;;;;;28.23;25.77;;;;;;;;;;5093125;28;20406;-75
2022/11/25 09:53:06;;;;;;;29.30;26.63;;;;;;;;;;5095380;28;20430;-76
2022/11/25 09:55:36;;;;;;;28.20;25.90;;;;;;;;;;5095916;28;20438;-75
2022/11/25 09:58:07;;;;;;;27.03;24.73;;;;;;;;;;5094874;28;20462;-76
2022/11/25 10:00:38;;;;;;;27.43;25.13;;;;;;;;;;5096023;28;20462;-76
2022/11/25 10:03:07;;;;;;;29.13;26.73;;;;;;;;;;5095177;28;20411;-75
2022/11/25 10:05:38;;;;;;;30.27;27.00;;;;;;;;;;5101244;28;20467;-81
2022/11/25 10:08:10;;;;;;;27.90;25.37;;;;;;;;;;5108248;28;20453;-80
2022/11/25 10:10:40;;;;;;;27.97;25.53;;;;;;;;;;5116781;28;20436;-81
2022/11/25 10:13:14;;;;;;;27.67;25.13;;;;;;;;;;5117434;28;20448;-80
2022/11/25 10:15:44;;;;;;;27.93;25.40;;;;;;;;;;5108346;28;20464;-82
2022/11/25 10:18:14;;;;;;;26.60;24.40;;;;;;;;;;5106240;28;20542;-81
2022/11/25 10:20:43;;;;;;;26.10;23.77;;;;;;;;;;5105178;28;20472;-80
2022/11/25 10:23:12;;;;;;;26.13;23.90;;;;;;;;;;5104999;28;20451;-81
2022/11/25 10:25:40;;;;;;;25.83;24.00;;;;;;;;;;5104993;28;20472;-80
2022/11/25 10:28:14;;;;;;;28.70;26.20;;;;;;;;;;5104616;28;20415;-80
2022/11/25 10:30:44;;;;;;;30.67;28.30;;;;;;;;;;5103726;28;20829;-80
2022/11/25 10:33:14;;;;;;;27.00;24.40;;;;;;;;;;5104221;28;20435;-80
2022/11/25 10:35:45;;;;;;;27.17;24.90;;;;;;;;;;5104411;28;20489;-80
2022/11/25 10:38:15;;;;;;;26.13;24.20;;;;;;;;;;5102922;28;20474;-80
2022/11/25 10:40:44;;;;;;;26.23;23.90;;;;;;;;;;5104578;28;20444;-80
2022/11/25 10:43:12;;;;;;;25.80;24.00;;;;;;;;;;5102671;28;20486;-74
2022/11/25 10:45:47;;;;;;;25.77;24.17;;;;;;;;;;5094032;28;20522;-75
2022/11/25 10:48:23;;;;;;;27.17;25.03;;;;;;;;;;5097023;28;20436;-84
2022/11/25 10:51:02;;;;;;;25.83;23.10;;;;;;;;;;5104173;28;20449;-79
2022/11/25 10:53:30;;;;;;;24.57;22.90;;;;;;;;;;5105015;28;20923;-79
2022/11/25 10:55:58;;;;;;;23.20;21.40;;;;;;;;;;5103531;28;20484;-81
2022/11/25 10:58:30;;;;;;;24.53;22.57;;;;;;;;;;5103658;28;20480;-79
2022/11/25 11:01:21;;;;;;;22.87;21.17;;;;;;;;;;5103407;28;20448;-79
2022/11/25 11:03:52;;;;;;;22.60;21.00;;;;;;;;;;5088001;28;20455;-80
2022/11/25 11:06:35;;;;;;;24.00;22.50;;;;;;;;;;5102729;28;20544;-80
2022/11/25 11:09:03;;;;;;;22.67;20.97;;;;;;;;;;5103976;28;20422;-80
2022/11/25 11:11:30;;;;;;;23.33;21.63;;;;;;;;;;5097321;28;20440;-75
2022/11/25 11:14:12;;;;;;;24.03;22.13;;;;;;;;;;5093980;28;20418;-74
2022/11/25 11:16:41;;;;;;;24.43;22.53;;;;;;;;;;5095770;28;20967;-75
2022/11/25 11:19:20;;;;;;;22.73;21.23;;;;;;;;;;5094977;28;20477;-74
2022/11/25 11:21:49;;;;;;;23.73;22.10;;;;;;;;;;5093743;28;20427;-75
2022/11/25 11:24:25;;;;;;;23.00;21.33;;;;;;;;;;5094161;28;20424;-75
2022/11/25 11:27:01;;;;;;;22.90;21.37;;;;;;;;;;5094279;28;20431;-75
2022/11/25 11:29:28;;;;;;;22.40;20.90;;;;;;;;;;5094328;28;20788;-75
2022/11/25 11:31:58;;;;;;;22.90;21.23;;;;;;;;;;5093217;28;20982;-76
2022/11/25 11:34:36;;;;;;;22.10;20.70;;;;;;;;;;5094261;28;20460;-75
2022/11/25 11:37:15;;;;;;;24.30;22.50;;;;;;;;;;5094255;28;20502;-76
2022/11/25 11:39:58;;;;;;;21.67;20.10;;;;;;;;;;5094006;28;20472;-75
2022/11/25 11:42:31;;;;;;;23.07;21.30;;;;;;;;;;5093510;28;20451;-76
2022/11/25 11:45:02;;;;;;;23.03;21.20;;;;;;;;;;5093726;28;20468;-75
2022/11/25 11:47:33;;;;;;;25.60;23.43;;;;;;;;;;5093365;28;20922;-75
2022/11/25 11:50:18;;;;;;;26.00;23.90;;;;;;;;;;5094028;28;20429;-76
2022/11/25 11:52:51;;;;;;;24.07;22.23;;;;;;;;;;5092876;28;20811;-76
2022/11/25 11:55:26;;;;;;;23.17;21.57;;;;;;;;;;5094104;28;20461;-76
2022/11/25 11:57:58;;;;;;;23.00;21.27;;;;;;;;;;5093285;28;20468;-76
2022/11/25 12:00:27;;;;;;;25.87;23.70;;;;;;;;;;5093535;28;20438;-75
2022/11/25 12:03:00;;;;;;;24.83;22.80;;;;;;;;;;5092956;28;20531;-75
2022/11/25 12:05:28;;;;;;;23.03;21.53;;;;;;;;;;5093510;28;20589;-75
2022/11/25 12:08:02;;;;;;;24.90;22.90;;;;;;;;;;5093760;28;20455;-76
2022/11/25 12:10:32;;;;;;;25.50;23.20;;;;;;;;;;5092893;28;20463;-75
2022/11/25 12:13:04;;;;;;;24.93;23.03;;;;;;;;;;5092200;28;20477;-75
2022/11/25 12:15:36;;;;;;;24.70;22.67;;;;;;;;;;5093351;28;20469;-74
2022/11/25 12:18:04;;;;;;;25.27;23.30;;;;;;;;;;5092912;28;20488;-75
2022/11/25 12:20:37;;;;;;;25.53;23.53;;;;;;;;;;5092756;28;20976;-74
2022/11/25 12:23:09;;;;;;;25.57;23.87;;;;;;;;;;5092695;28;20410;-74
2022/11/25 12:25:37;;;;;;;26.83;24.63;;;;;;;;;;5093436;28;20468;-75
2022/11/25 12:28:07;;;;;;;25.90;23.97;;;;;;;;;;5093079;28;20924;-77
2022/11/25 12:30:37;;;;;;;26.47;24.47;;;;;;;;;;5092848;28;20475;-76
2022/11/25 12:33:06;;;;;;;27.10;24.80;;;;;;;;;;5092287;28;20448;-74
2022/11/25 12:35:44;;;;;;;25.43;23.40;;;;;;;;;;5093216;28;20475;-75
2022/11/25 12:38:21;;;;;;;26.70;24.60;;;;;;;;;;5093227;28;20815;-76
2022/11/25 12:40:54;;;;;;;27.20;25.20;;;;;;;;;;5093049;28;20446;-75
2022/11/25 12:43:24;;;;;;;26.57;24.23;;;;;;;;;;5091972;28;20450;-74
2022/11/25 12:45:54;;;;;;;27.03;24.57;;;;;;;;;;5093097;28;20473;-75
2022/11/25 12:48:21;;;;;;;28.23;26.20;;;;;;;;;;5092680;28;20514;-75
2022/11/25 12:50:54;;;;;;;30.07;27.67;;;;;;;;;;5093111;28;20451;-76
2022/11/25 12:53:27;;;;;;;27.87;25.77;;;;;;;;;;5092316;28;20436;-75
2022/11/25 12:55:54;;;;;;;29.07;26.40;;;;;;;;;;5093032;28;20439;-75
2022/11/25 12:58:39;;;;;;;30.20;28.10;;;;;;;;;;5092739;28;20496;-76
2022/11/25 13:01:17;;;;;;;27.50;25.50;;;;;;;;;;5092243;28;20442;-76
2022/11/25 13:03:59;;;;;;;30.10;27.43;;;;;;;;;;5092441;28;20436;-75
2022/11/25 13:06:38;;;;;;;29.20;26.60;;;;;;;;;;5092976;28;20822;-76
2022/11/25 13:09:12;;;;;;;28.60;26.43;;;;;;;;;;5092707;28;20871;-75
2022/11/25 13:11:56;;;;;;;29.77;27.23;;;;;;;;;;5091799;28;20460;-76
2022/11/25 13:14:26;;;;;;;28.90;26.77;;;;;;;;;;5093059;28;20428;-76
2022/11/25 13:16:54;;;;;;;26.50;24.60;;;;;;;;;;5092430;28;20441;-75
2022/11/25 13:19:21;;;;;;;27.37;25.07;;;;;;;;;;5092396;28;20463;-75
2022/11/25 13:21:59;;;;;;;25.43;23.60;;;;;;;;;;5091361;28;20961;-75
2022/11/25 13:24:29;;;;;;;27.17;24.90;;;;;;;;;;5093266;28;20456;-76
2022/11/25 13:26:56;;;;;;;28.33;25.90;;;;;;;;;;5097200;28;20419;-76
2022/11/25 13:29:42;;;;;;;28.30;26.10;;;;;;;;;;5097217;28;20430;-81
2022/11/25 13:32:25;;;;;;;26.80;24.63;;;;;;;;;;5105084;28;20443;-81
2022/11/25 13:35:13;;;;;;;28.40;26.30;;;;;;;;;;5104394;28;20484;-82
2022/11/25 13:37:41;;;;;;;28.13;25.93;;;;;;;;;;5105655;28;20452;-82
2022/11/25 13:40:31;;;;;;;26.23;24.17;;;;;;;;;;5105013;28;20484;-81
2022/11/25 13:42:59;;;;;;;26.93;24.33;;;;;;;;;;5103089;28;20799;-81
2022/11/25 13:45:27;;;;;;;26.60;23.80;;;;;;;;;;5101048;28;20527;-81
2022/11/25 13:47:55;;;;;;;28.90;26.70;;;;;;;;;;5102143;28;20449;-83
2022/11/25 13:50:24;;;;;;;28.60;26.40;;;;;;;;;;5102289;28;20445;-83
2022/11/25 13:52:58;;;;;;;31.27;28.50;;;;;;;;;;5101862;28;20441;-83
2022/11/25 13:55:31;;;;;;;26.03;24.03;;;;;;;;;;5104146;28;20577;-81
2022/11/25 13:58:16;;;;;;;48.30;41.13;;;;;;;;;;5103983;28;20927;-82
2022/11/25 14:00:49;;;;;;;29.63;26.90;;;;;;;;;;5103850;28;20424;-81
2022/11/25 14:03:37;;;;;;;28.63;26.23;;;;;;;;;;5103871;28;20453;-81
2022/11/25 14:06:07;;;;;;;35.53;32.57;;;;;;;;;;5104593;28;20480;-83
2022/11/25 14:08:38;;;;;;;28.47;26.27;;;;;;;;;;5101801;28;20440;-82
2022/11/25 14:11:26;;;;;;;41.13;38.00;;;;;;;;;;5104218;28;20433;-80
2022/11/25 14:14:05;;;;;;;25.00;22.90;;;;;;;;;;5074650;28;20900;-75
2022/11/25 14:16:49;;;;;;;27.90;26.10;;;;;;;;;;5086814;28;20455;-75
2022/11/25 14:19:23;;;;;;;27.90;25.43;;;;;;;;;;5083466;28;20487;-75
2022/11/25 14:22:00;;;;;;;24.73;23.23;;;;;;;;;;5086931;28;20445;-75
2022/11/25 14:24:29;;;;;;;25.10;23.20;;;;;;;;;;5075519;28;20425;-75
2022/11/25 14:27:00;;;;;;;22.30;20.80;;;;;;;;;;5076160;28;20518;-75
2022/11/25 14:29:29;;;;;;;24.40;22.23;;;;;;;;;;5075162;28;20793;-75
2022/11/25 14:31:58;;;;;;;25.80;23.67;;;;;;;;;;5074340;28;20851;-75
2022/11/25 14:34:29;;;;;;;25.40;23.50;;;;;;;;;;5075326;28;20445;-75
2022/11/25 14:37:00;;;;;;;25.03;22.73;;;;;;;;;;5078886;28;20453;-75
2022/11/25 14:39:30;;;;;;;24.47;22.23;;;;;;;;;;5075305;28;20481;-76
2022/11/25 14:42:02;;;;;;;26.47;24.10;;;;;;;;;;5074111;28;20466;-81
2022/11/25 14:44:34;;;;;;;28.10;22.23;;;;;;;;;;5074673;28;20958;-75
2022/11/25 14:47:04;;;;;;;25.40;23.40;;;;;;;;;;5075131;28;20436;-75
2022/11/25 14:49:42;;;;;;;26.30;24.13;;;;;;;;;;5075012;28;20446;-75